sensor_id;sensor_type;location;lat;lon;timestamp;P1;durP1;ratioP1;P2;durP2;ratioP2
35364;SDS011;21464;48.112;11.530;2022-12-18T00:01:04;42.87;;;23.97;;
35364;SDS011;21464;48.112;11.530;2022-12-18T00:03:35;42.97;;;24.20;;
35364;SDS011;21464;48.112;11.530;2022-12-18T00:06:01;42.20;;;23.93;;
35364;SDS011;21464;48.112;11.530;2022-12-18T00:08:28;41.17;;;24.23;;
35364;SDS011;21464;48.112;11.530;2022-12-18T00:10:54;42.27;;;23.43;;
35364;SDS011;21464;48.112;11.530;2022-12-18T00:13:20;41.27;;;24.27;;
35364;SDS011;21464;48.112;11.530;2022-12-18T00:15:47;40.80;;;23.77;;
35364;SDS011;21464;48.112;11.530;2022-12-18T00:18:13;41.57;;;24.27;;
35364;SDS011;21464;48.112;11.530;2022-12-18T00:20:39;40.77;;;23.20;;
35364;SDS011;21464;48.112;11.530;2022-12-18T00:23:06;40.90;;;23.13;;
35364;SDS011;21464;48.112;11.530;2022-12-18T00:25:35;43.33;;;24.57;;
35364;SDS011;21464;48.112;11.530;2022-12-18T00:28:02;40.90;;;22.60;;
35364;SDS011;21464;48.112;11.530;2022-12-18T00:30:29;37.97;;;24.13;;
35364;SDS011;21464;48.112;11.530;2022-12-18T00:32:55;41.17;;;23.43;;
35364;SDS011;21464;48.112;11.530;2022-12-18T00:35:25;43.17;;;24.27;;
35364;SDS011;21464;48.112;11.530;2022-12-18T00:37:52;40.37;;;23.13;;
35364;SDS011;21464;48.112;11.530;2022-12-18T00:40:18;45.13;;;23.40;;
35364;SDS011;21464;48.112;11.530;2022-12-18T00:42:44;39.17;;;22.83;;
35364;SDS011;21464;48.112;11.530;2022-12-18T00:45:26;41.47;;;22.03;;
35364;SDS011;21464;48.112;11.530;2022-12-18T00:47:54;36.07;;;21.87;;
35364;SDS011;21464;48.112;11.530;2022-12-18T00:50:21;39.63;;;21.53;;
35364;SDS011;21464;48.112;11.530;2022-12-18T00:52:49;38.97;;;22.50;;
35364;SDS011;21464;48.112;11.530;2022-12-18T00:55:15;39.57;;;23.03;;
35364;SDS011;21464;48.112;11.530;2022-12-18T00:57:41;39.00;;;21.63;;
35364;SDS011;21464;48.112;11.530;2022-12-18T01:00:09;39.63;;;22.47;;
35364;SDS011;21464;48.112;11.530;2022-12-18T01:02:36;42.63;;;20.90;;
35364;SDS011;21464;48.112;11.530;2022-12-18T01:05:03;38.90;;;22.00;;
35364;SDS011;21464;48.112;11.530;2022-12-18T01:07:30;41.40;;;21.53;;
35364;SDS011;21464;48.112;11.530;2022-12-18T01:09:56;38.47;;;21.03;;
35364;SDS011;21464;48.112;11.530;2022-12-18T01:12:22;41.93;;;22.00;;
35364;SDS011;21464;48.112;11.530;2022-12-18T01:14:50;40.53;;;22.23;;
35364;SDS011;21464;48.112;11.530;2022-12-18T01:17:16;35.43;;;21.90;;
35364;SDS011;21464;48.112;11.530;2022-12-18T01:19:42;37.77;;;20.87;;
35364;SDS011;21464;48.112;11.530;2022-12-18T01:22:09;39.93;;;21.70;;
35364;SDS011;21464;48.112;11.530;2022-12-18T01:24:36;38.30;;;21.80;;
35364;SDS011;21464;48.112;11.530;2022-12-18T01:27:02;37.43;;;21.43;;
35364;SDS011;21464;48.112;11.530;2022-12-18T01:29:28;35.77;;;20.67;;
35364;SDS011;21464;48.112;11.530;2022-12-18T01:31:55;39.20;;;21.20;;
35364;SDS011;21464;48.112;11.530;2022-12-18T01:34:22;38.67;;;21.13;;
35364;SDS011;21464;48.112;11.530;2022-12-18T01:36:49;38.30;;;20.27;;
35364;SDS011;21464;48.112;11.530;2022-12-18T01:39:17;31.70;;;19.57;;
35364;SDS011;21464;48.112;11.530;2022-12-18T01:41:44;32.13;;;19.43;;
35364;SDS011;21464;48.112;11.530;2022-12-18T01:47:30;35.70;;;20.43;;
35364;SDS011;21464;48.112;11.530;2022-12-18T01:50:14;34.73;;;20.07;;
35364;SDS011;21464;48.112;11.530;2022-12-18T01:52:43;34.40;;;20.37;;
35364;SDS011;21464;48.112;11.530;2022-12-18T01:55:13;35.87;;;20.50;;
35364;SDS011;21464;48.112;11.530;2022-12-18T01:57:42;39.13;;;21.77;;
35364;SDS011;21464;48.112;11.530;2022-12-18T02:00:10;37.77;;;21.83;;
35364;SDS011;21464;48.112;11.530;2022-12-18T02:02:41;35.47;;;20.43;;
35364;SDS011;21464;48.112;11.530;2022-12-18T02:05:08;35.17;;;20.73;;
35364;SDS011;21464;48.112;11.530;2022-12-18T02:07:44;37.97;;;20.80;;
35364;SDS011;21464;48.112;11.530;2022-12-18T02:16:04;38.90;;;21.03;;
35364;SDS011;21464;48.112;11.530;2022-12-18T02:18:40;39.23;;;21.73;;
35364;SDS011;21464;48.112;11.530;2022-12-18T02:21:20;36.97;;;20.80;;
35364;SDS011;21464;48.112;11.530;2022-12-18T02:26:53;42.07;;;22.77;;
35364;SDS011;21464;48.112;11.530;2022-12-18T02:29:26;42.47;;;23.23;;
35364;SDS011;21464;48.112;11.530;2022-12-18T02:32:00;45.90;;;23.27;;
35364;SDS011;21464;48.112;11.530;2022-12-18T02:34:28;40.37;;;23.77;;
35364;SDS011;21464;48.112;11.530;2022-12-18T02:36:57;45.03;;;23.50;;
35364;SDS011;21464;48.112;11.530;2022-12-18T02:39:25;47.00;;;24.90;;
35364;SDS011;21464;48.112;11.530;2022-12-18T02:42:02;46.43;;;24.73;;
35364;SDS011;21464;48.112;11.530;2022-12-18T02:44:34;50.97;;;25.73;;
35364;SDS011;21464;48.112;11.530;2022-12-18T02:47:02;47.40;;;25.13;;
35364;SDS011;21464;48.112;11.530;2022-12-18T02:54:39;44.53;;;23.87;;
35364;SDS011;21464;48.112;11.530;2022-12-18T02:57:18;46.63;;;25.10;;
35364;SDS011;21464;48.112;11.530;2022-12-18T02:59:55;45.07;;;24.87;;
35364;SDS011;21464;48.112;11.530;2022-12-18T03:02:38;44.20;;;24.50;;
35364;SDS011;21464;48.112;11.530;2022-12-18T03:05:15;46.37;;;25.30;;
35364;SDS011;21464;48.112;11.530;2022-12-18T03:10:38;45.90;;;24.57;;
35364;SDS011;21464;48.112;11.530;2022-12-18T03:13:15;54.63;;;26.60;;
35364;SDS011;21464;48.112;11.530;2022-12-18T03:15:47;49.93;;;25.23;;
35364;SDS011;21464;48.112;11.530;2022-12-18T03:18:16;46.73;;;23.73;;
35364;SDS011;21464;48.112;11.530;2022-12-18T03:20:45;50.53;;;25.20;;
35364;SDS011;21464;48.112;11.530;2022-12-18T03:23:18;46.63;;;25.17;;
35364;SDS011;21464;48.112;11.530;2022-12-18T03:25:48;46.60;;;24.23;;
35364;SDS011;21464;48.112;11.530;2022-12-18T03:28:21;47.17;;;25.33;;
35364;SDS011;21464;48.112;11.530;2022-12-18T03:30:53;42.10;;;23.47;;
35364;SDS011;21464;48.112;11.530;2022-12-18T03:33:27;48.73;;;24.70;;
35364;SDS011;21464;48.112;11.530;2022-12-18T03:35:57;53.03;;;26.13;;
35364;SDS011;21464;48.112;11.530;2022-12-18T03:38:23;50.53;;;26.70;;
35364;SDS011;21464;48.112;11.530;2022-12-18T03:40:54;47.07;;;23.67;;
35364;SDS011;21464;48.112;11.530;2022-12-18T03:43:30;40.00;;;21.97;;
35364;SDS011;21464;48.112;11.530;2022-12-18T03:46:08;44.10;;;24.33;;
35364;SDS011;21464;48.112;11.530;2022-12-18T03:48:43;43.53;;;24.00;;
35364;SDS011;21464;48.112;11.530;2022-12-18T03:51:32;46.03;;;24.57;;
35364;SDS011;21464;48.112;11.530;2022-12-18T03:54:06;48.10;;;24.00;;
35364;SDS011;21464;48.112;11.530;2022-12-18T03:56:40;44.97;;;23.30;;
35364;SDS011;21464;48.112;11.530;2022-12-18T03:59:09;47.93;;;24.40;;
35364;SDS011;21464;48.112;11.530;2022-12-18T04:01:39;42.40;;;23.70;;
35364;SDS011;21464;48.112;11.530;2022-12-18T04:04:09;49.60;;;25.30;;
35364;SDS011;21464;48.112;11.530;2022-12-18T04:06:39;47.37;;;23.80;;
35364;SDS011;21464;48.112;11.530;2022-12-18T04:09:09;50.07;;;25.17;;
35364;SDS011;21464;48.112;11.530;2022-12-18T04:11:40;48.87;;;24.37;;
35364;SDS011;21464;48.112;11.530;2022-12-18T04:14:10;42.53;;;24.93;;
35364;SDS011;21464;48.112;11.530;2022-12-18T04:16:37;49.97;;;26.83;;
35364;SDS011;21464;48.112;11.530;2022-12-18T04:19:05;47.80;;;24.27;;
35364;SDS011;21464;48.112;11.530;2022-12-18T04:21:38;45.33;;;25.30;;
35364;SDS011;21464;48.112;11.530;2022-12-18T04:24:04;45.83;;;25.20;;
35364;SDS011;21464;48.112;11.530;2022-12-18T04:26:32;41.30;;;23.60;;
35364;SDS011;21464;48.112;11.530;2022-12-18T04:29:19;43.83;;;25.60;;
35364;SDS011;21464;48.112;11.530;2022-12-18T04:31:45;48.13;;;24.23;;
35364;SDS011;21464;48.112;11.530;2022-12-18T04:34:11;43.27;;;24.53;;
35364;SDS011;21464;48.112;11.530;2022-12-18T04:36:44;45.77;;;24.53;;
35364;SDS011;21464;48.112;11.530;2022-12-18T04:39:10;52.00;;;25.93;;
35364;SDS011;21464;48.112;11.530;2022-12-18T04:41:37;46.83;;;25.53;;
35364;SDS011;21464;48.112;11.530;2022-12-18T04:44:04;50.20;;;24.93;;
35364;SDS011;21464;48.112;11.530;2022-12-18T04:46:30;43.90;;;23.50;;
35364;SDS011;21464;48.112;11.530;2022-12-18T04:48:56;45.50;;;25.10;;
35364;SDS011;21464;48.112;11.530;2022-12-18T04:51:22;47.53;;;26.10;;
35364;SDS011;21464;48.112;11.530;2022-12-18T04:53:49;45.17;;;24.73;;
35364;SDS011;21464;48.112;11.530;2022-12-18T04:56:15;48.50;;;24.93;;
35364;SDS011;21464;48.112;11.530;2022-12-18T04:58:42;38.47;;;22.27;;
35364;SDS011;21464;48.112;11.530;2022-12-18T05:01:10;46.33;;;25.43;;
35364;SDS011;21464;48.112;11.530;2022-12-18T05:03:37;43.90;;;24.33;;
35364;SDS011;21464;48.112;11.530;2022-12-18T05:06:04;45.57;;;24.07;;
35364;SDS011;21464;48.112;11.530;2022-12-18T05:08:31;43.87;;;24.20;;
35364;SDS011;21464;48.112;11.530;2022-12-18T05:10:59;46.30;;;24.67;;
35364;SDS011;21464;48.112;11.530;2022-12-18T05:13:35;42.00;;;24.87;;
35364;SDS011;21464;48.112;11.530;2022-12-18T05:16:03;42.83;;;22.97;;
35364;SDS011;21464;48.112;11.530;2022-12-18T05:18:30;42.87;;;23.33;;
35364;SDS011;21464;48.112;11.530;2022-12-18T05:20:57;40.87;;;23.60;;
35364;SDS011;21464;48.112;11.530;2022-12-18T05:23:23;41.87;;;23.23;;
35364;SDS011;21464;48.112;11.530;2022-12-18T05:25:50;43.27;;;23.60;;
35364;SDS011;21464;48.112;11.530;2022-12-18T05:28:20;39.70;;;22.33;;
35364;SDS011;21464;48.112;11.530;2022-12-18T05:30:48;46.87;;;23.33;;
35364;SDS011;21464;48.112;11.530;2022-12-18T05:33:18;44.57;;;22.73;;
35364;SDS011;21464;48.112;11.530;2022-12-18T05:35:49;41.63;;;22.57;;
35364;SDS011;21464;48.112;11.530;2022-12-18T05:38:16;39.03;;;21.70;;
35364;SDS011;21464;48.112;11.530;2022-12-18T05:40:43;40.87;;;21.20;;
35364;SDS011;21464;48.112;11.530;2022-12-18T05:43:09;41.87;;;22.67;;
35364;SDS011;21464;48.112;11.530;2022-12-18T05:45:37;40.20;;;22.63;;
35364;SDS011;21464;48.112;11.530;2022-12-18T05:48:04;36.90;;;21.43;;
35364;SDS011;21464;48.112;11.530;2022-12-18T05:50:33;38.63;;;21.37;;
35364;SDS011;21464;48.112;11.530;2022-12-18T05:53:01;34.83;;;22.03;;
35364;SDS011;21464;48.112;11.530;2022-12-18T05:55:28;37.77;;;21.27;;
35364;SDS011;21464;48.112;11.530;2022-12-18T05:57:54;41.63;;;22.90;;
35364;SDS011;21464;48.112;11.530;2022-12-18T06:00:21;38.60;;;22.60;;
35364;SDS011;21464;48.112;11.530;2022-12-18T06:02:47;37.63;;;21.73;;
35364;SDS011;21464;48.112;11.530;2022-12-18T06:05:13;39.07;;;21.23;;
35364;SDS011;21464;48.112;11.530;2022-12-18T06:07:40;37.73;;;19.87;;
35364;SDS011;21464;48.112;11.530;2022-12-18T06:10:06;36.60;;;20.93;;
35364;SDS011;21464;48.112;11.530;2022-12-18T06:12:32;37.03;;;20.23;;
35364;SDS011;21464;48.112;11.530;2022-12-18T06:15:01;39.20;;;20.47;;
35364;SDS011;21464;48.112;11.530;2022-12-18T06:17:30;32.80;;;21.13;;
35364;SDS011;21464;48.112;11.530;2022-12-18T06:19:56;36.33;;;21.23;;
35364;SDS011;21464;48.112;11.530;2022-12-18T06:22:23;40.57;;;21.90;;
35364;SDS011;21464;48.112;11.530;2022-12-18T06:24:49;37.43;;;21.73;;
35364;SDS011;21464;48.112;11.530;2022-12-18T06:27:16;38.77;;;21.63;;
35364;SDS011;21464;48.112;11.530;2022-12-18T06:29:42;37.83;;;21.30;;
35364;SDS011;21464;48.112;11.530;2022-12-18T06:32:08;37.40;;;21.90;;
35364;SDS011;21464;48.112;11.530;2022-12-18T06:34:36;35.00;;;20.57;;
35364;SDS011;21464;48.112;11.530;2022-12-18T06:37:03;39.03;;;21.77;;
35364;SDS011;21464;48.112;11.530;2022-12-18T06:39:29;36.10;;;21.50;;
35364;SDS011;21464;48.112;11.530;2022-12-18T06:41:56;38.30;;;21.63;;
35364;SDS011;21464;48.112;11.530;2022-12-18T06:44:22;33.20;;;21.13;;
35364;SDS011;21464;48.112;11.530;2022-12-18T06:46:48;37.57;;;21.17;;
35364;SDS011;21464;48.112;11.530;2022-12-18T06:49:14;48.33;;;25.27;;
35364;SDS011;21464;48.112;11.530;2022-12-18T06:51:41;34.40;;;20.20;;
35364;SDS011;21464;48.112;11.530;2022-12-18T06:54:08;38.43;;;20.57;;
35364;SDS011;21464;48.112;11.530;2022-12-18T06:56:34;36.53;;;21.33;;
35364;SDS011;21464;48.112;11.530;2022-12-18T06:59:00;40.50;;;22.30;;
35364;SDS011;21464;48.112;11.530;2022-12-18T07:01:27;53.90;;;27.83;;
35364;SDS011;21464;48.112;11.530;2022-12-18T07:03:54;40.27;;;22.93;;
35364;SDS011;21464;48.112;11.530;2022-12-18T07:06:21;36.80;;;21.93;;
35364;SDS011;21464;48.112;11.530;2022-12-18T07:08:50;38.70;;;21.27;;
35364;SDS011;21464;48.112;11.530;2022-12-18T07:11:17;38.50;;;21.07;;
35364;SDS011;21464;48.112;11.530;2022-12-18T07:13:43;42.53;;;22.30;;
35364;SDS011;21464;48.112;11.530;2022-12-18T07:16:12;40.70;;;23.17;;
35364;SDS011;21464;48.112;11.530;2022-12-18T07:18:41;34.93;;;20.10;;
35364;SDS011;21464;48.112;11.530;2022-12-18T07:21:09;41.70;;;21.53;;
35364;SDS011;21464;48.112;11.530;2022-12-18T07:23:39;37.33;;;20.10;;
35364;SDS011;21464;48.112;11.530;2022-12-18T07:26:07;38.43;;;22.20;;
35364;SDS011;21464;48.112;11.530;2022-12-18T07:28:35;39.43;;;22.03;;
35364;SDS011;21464;48.112;11.530;2022-12-18T07:31:03;41.03;;;23.53;;
35364;SDS011;21464;48.112;11.530;2022-12-18T07:33:32;41.37;;;22.07;;
35364;SDS011;21464;48.112;11.530;2022-12-18T07:35:59;38.07;;;21.53;;
35364;SDS011;21464;48.112;11.530;2022-12-18T07:38:26;41.10;;;21.77;;
35364;SDS011;21464;48.112;11.530;2022-12-18T07:40:52;39.50;;;21.53;;
35364;SDS011;21464;48.112;11.530;2022-12-18T07:43:18;40.87;;;21.83;;
35364;SDS011;21464;48.112;11.530;2022-12-18T07:45:45;37.37;;;22.53;;
35364;SDS011;21464;48.112;11.530;2022-12-18T07:48:11;35.37;;;20.30;;
35364;SDS011;21464;48.112;11.530;2022-12-18T07:50:37;34.77;;;19.67;;
35364;SDS011;21464;48.112;11.530;2022-12-18T07:53:03;39.73;;;22.30;;
35364;SDS011;21464;48.112;11.530;2022-12-18T07:55:31;44.73;;;24.60;;
35364;SDS011;21464;48.112;11.530;2022-12-18T07:58:00;39.03;;;22.17;;
35364;SDS011;21464;48.112;11.530;2022-12-18T08:00:27;39.10;;;21.70;;
35364;SDS011;21464;48.112;11.530;2022-12-18T08:02:53;38.87;;;20.80;;
35364;SDS011;21464;48.112;11.530;2022-12-18T08:05:20;35.93;;;21.03;;
35364;SDS011;21464;48.112;11.530;2022-12-18T08:07:46;35.80;;;20.97;;
35364;SDS011;21464;48.112;11.530;2022-12-18T08:10:13;36.50;;;20.73;;
35364;SDS011;21464;48.112;11.530;2022-12-18T08:12:39;39.07;;;21.40;;
35364;SDS011;21464;48.112;11.530;2022-12-18T08:15:06;40.57;;;22.33;;
35364;SDS011;21464;48.112;11.530;2022-12-18T08:17:32;41.77;;;22.93;;
35364;SDS011;21464;48.112;11.530;2022-12-18T08:19:59;45.27;;;24.57;;
35364;SDS011;21464;48.112;11.530;2022-12-18T08:22:25;34.87;;;20.00;;
35364;SDS011;21464;48.112;11.530;2022-12-18T08:24:51;35.80;;;20.83;;
35364;SDS011;21464;48.112;11.530;2022-12-18T08:27:17;40.17;;;21.70;;
35364;SDS011;21464;48.112;11.530;2022-12-18T08:29:43;34.53;;;19.93;;
35364;SDS011;21464;48.112;11.530;2022-12-18T08:32:10;33.97;;;20.07;;
35364;SDS011;21464;48.112;11.530;2022-12-18T08:34:36;31.87;;;19.70;;
35364;SDS011;21464;48.112;11.530;2022-12-18T08:37:02;35.73;;;20.40;;
35364;SDS011;21464;48.112;11.530;2022-12-18T08:39:28;35.00;;;19.80;;
35364;SDS011;21464;48.112;11.530;2022-12-18T08:41:55;36.17;;;20.43;;
35364;SDS011;21464;48.112;11.530;2022-12-18T08:44:39;37.10;;;20.13;;
35364;SDS011;21464;48.112;11.530;2022-12-18T08:47:07;35.57;;;21.37;;
35364;SDS011;21464;48.112;11.530;2022-12-18T08:49:33;36.73;;;20.30;;
35364;SDS011;21464;48.112;11.530;2022-12-18T08:52:00;33.80;;;19.67;;
35364;SDS011;21464;48.112;11.530;2022-12-18T08:54:28;47.00;;;24.40;;
35364;SDS011;21464;48.112;11.530;2022-12-18T08:56:54;39.07;;;22.90;;
35364;SDS011;21464;48.112;11.530;2022-12-18T08:59:21;33.07;;;19.27;;
35364;SDS011;21464;48.112;11.530;2022-12-18T09:01:47;34.23;;;19.40;;
35364;SDS011;21464;48.112;11.530;2022-12-18T09:04:14;33.60;;;19.97;;
35364;SDS011;21464;48.112;11.530;2022-12-18T09:06:40;29.43;;;18.07;;
35364;SDS011;21464;48.112;11.530;2022-12-18T09:09:06;32.27;;;18.23;;
35364;SDS011;21464;48.112;11.530;2022-12-18T09:11:33;33.67;;;19.17;;
35364;SDS011;21464;48.112;11.530;2022-12-18T09:13:59;30.87;;;18.07;;
35364;SDS011;21464;48.112;11.530;2022-12-18T09:16:27;30.83;;;19.90;;
35364;SDS011;21464;48.112;11.530;2022-12-18T09:18:54;30.90;;;19.63;;
35364;SDS011;21464;48.112;11.530;2022-12-18T09:21:25;31.67;;;19.23;;
35364;SDS011;21464;48.112;11.530;2022-12-18T09:23:53;33.77;;;19.53;;
35364;SDS011;21464;48.112;11.530;2022-12-18T09:26:21;36.27;;;20.33;;
35364;SDS011;21464;48.112;11.530;2022-12-18T09:28:48;33.20;;;19.20;;
35364;SDS011;21464;48.112;11.530;2022-12-18T09:31:14;31.63;;;18.27;;
35364;SDS011;21464;48.112;11.530;2022-12-18T09:33:41;32.23;;;18.77;;
35364;SDS011;21464;48.112;11.530;2022-12-18T09:36:09;28.60;;;17.90;;
35364;SDS011;21464;48.112;11.530;2022-12-18T09:38:36;30.40;;;18.93;;
35364;SDS011;21464;48.112;11.530;2022-12-18T09:44:11;32.37;;;18.63;;
35364;SDS011;21464;48.112;11.530;2022-12-18T09:46:40;32.17;;;19.43;;
35364;SDS011;21464;48.112;11.530;2022-12-18T09:49:12;31.90;;;18.37;;
35364;SDS011;21464;48.112;11.530;2022-12-18T09:51:43;30.23;;;18.77;;
35364;SDS011;21464;48.112;11.530;2022-12-18T09:54:22;31.33;;;18.97;;
35364;SDS011;21464;48.112;11.530;2022-12-18T09:56:52;26.77;;;17.90;;
35364;SDS011;21464;48.112;11.530;2022-12-18T09:59:32;30.97;;;18.20;;
35364;SDS011;21464;48.112;11.530;2022-12-18T10:02:12;29.27;;;17.03;;
35364;SDS011;21464;48.112;11.530;2022-12-18T10:04:43;30.13;;;17.83;;
35364;SDS011;21464;48.112;11.530;2022-12-18T10:07:19;30.63;;;17.30;;
35364;SDS011;21464;48.112;11.530;2022-12-18T10:09:58;29.93;;;18.57;;
35364;SDS011;21464;48.112;11.530;2022-12-18T10:12:42;30.27;;;17.73;;
35364;SDS011;21464;48.112;11.530;2022-12-18T10:15:27;25.77;;;16.90;;
35364;SDS011;21464;48.112;11.530;2022-12-18T10:17:59;32.50;;;17.90;;
35364;SDS011;21464;48.112;11.530;2022-12-18T10:21:00;32.33;;;18.83;;
35364;SDS011;21464;48.112;11.530;2022-12-18T10:23:48;29.73;;;18.13;;
35364;SDS011;21464;48.112;11.530;2022-12-18T10:26:18;28.30;;;17.90;;
35364;SDS011;21464;48.112;11.530;2022-12-18T10:28:45;29.90;;;17.97;;
35364;SDS011;21464;48.112;11.530;2022-12-18T10:31:16;31.83;;;18.97;;
35364;SDS011;21464;48.112;11.530;2022-12-18T10:33:44;30.63;;;17.97;;
35364;SDS011;21464;48.112;11.530;2022-12-18T10:36:11;31.43;;;18.13;;
35364;SDS011;21464;48.112;11.530;2022-12-18T10:38:37;30.73;;;17.83;;
35364;SDS011;21464;48.112;11.530;2022-12-18T10:41:05;30.93;;;17.93;;
35364;SDS011;21464;48.112;11.530;2022-12-18T10:43:32;32.70;;;17.70;;
35364;SDS011;21464;48.112;11.530;2022-12-18T10:51:47;30.43;;;18.30;;
35364;SDS011;21464;48.112;11.530;2022-12-18T10:54:16;33.83;;;19.63;;
35364;SDS011;21464;48.112;11.530;2022-12-18T10:56:42;29.77;;;18.10;;
35364;SDS011;21464;48.112;11.530;2022-12-18T10:59:10;31.40;;;18.07;;
35364;SDS011;21464;48.112;11.530;2022-12-18T11:01:45;36.97;;;19.30;;
35364;SDS011;21464;48.112;11.530;2022-12-18T11:04:20;31.33;;;18.77;;
35364;SDS011;21464;48.112;11.530;2022-12-18T11:07:04;31.30;;;17.97;;
35364;SDS011;21464;48.112;11.530;2022-12-18T11:09:32;32.20;;;19.23;;
35364;SDS011;21464;48.112;11.530;2022-12-18T11:12:02;29.43;;;18.63;;
35364;SDS011;21464;48.112;11.530;2022-12-18T11:14:50;32.33;;;17.70;;
35364;SDS011;21464;48.112;11.530;2022-12-18T11:17:19;32.10;;;18.60;;
35364;SDS011;21464;48.112;11.530;2022-12-18T11:19:55;29.53;;;18.20;;
35364;SDS011;21464;48.112;11.530;2022-12-18T11:22:32;27.10;;;17.00;;
35364;SDS011;21464;48.112;11.530;2022-12-18T11:25:34;30.83;;;17.90;;
35364;SDS011;21464;48.112;11.530;2022-12-18T11:27:56;28.17;;;17.40;;
35364;SDS011;21464;48.112;11.530;2022-12-18T11:32:59;28.57;;;18.40;;
35364;SDS011;21464;48.112;11.530;2022-12-18T11:35:34;27.53;;;17.00;;
35364;SDS011;21464;48.112;11.530;2022-12-18T11:38:03;26.73;;;16.77;;
35364;SDS011;21464;48.112;11.530;2022-12-18T11:40:40;27.83;;;17.77;;
35364;SDS011;21464;48.112;11.530;2022-12-18T11:43:29;28.23;;;17.73;;
35364;SDS011;21464;48.112;11.530;2022-12-18T11:45:59;26.43;;;16.83;;
35364;SDS011;21464;48.112;11.530;2022-12-18T11:48:43;27.53;;;18.33;;
35364;SDS011;21464;48.112;11.530;2022-12-18T11:51:18;27.67;;;17.10;;
35364;SDS011;21464;48.112;11.530;2022-12-18T11:53:51;28.53;;;18.27;;
35364;SDS011;21464;48.112;11.530;2022-12-18T11:56:36;27.90;;;17.43;;
35364;SDS011;21464;48.112;11.530;2022-12-18T12:05:00;30.13;;;17.17;;
35364;SDS011;21464;48.112;11.530;2022-12-18T12:13:28;33.30;;;18.17;;
35364;SDS011;21464;48.112;11.530;2022-12-18T12:26:49;26.97;;;17.17;;
35364;SDS011;21464;48.112;11.530;2022-12-18T12:40:30;32.33;;;18.57;;
35364;SDS011;21464;48.112;11.530;2022-12-18T12:43:25;30.90;;;18.23;;
35364;SDS011;21464;48.112;11.530;2022-12-18T12:45:55;31.10;;;17.63;;
35364;SDS011;21464;48.112;11.530;2022-12-18T12:51:21;23.40;;;16.03;;
35364;SDS011;21464;48.112;11.530;2022-12-18T12:53:50;30.03;;;17.90;;
35364;SDS011;21464;48.112;11.530;2022-12-18T12:56:18;29.77;;;17.73;;
35364;SDS011;21464;48.112;11.530;2022-12-18T13:09:23;28.47;;;17.03;;
35364;SDS011;21464;48.112;11.530;2022-12-18T13:11:49;28.40;;;17.87;;
35364;SDS011;21464;48.112;11.530;2022-12-18T13:14:35;29.77;;;18.07;;
35364;SDS011;21464;48.112;11.530;2022-12-18T13:22:35;27.67;;;18.20;;
35364;SDS011;21464;48.112;11.530;2022-12-18T13:25:38;26.10;;;17.33;;
35364;SDS011;21464;48.112;11.530;2022-12-18T13:28:01;37.40;;;17.10;;
35364;SDS011;21464;48.112;11.530;2022-12-18T13:40:58;25.97;;;16.27;;
35364;SDS011;21464;48.112;11.530;2022-12-18T13:45:59;29.20;;;16.87;;
35364;SDS011;21464;48.112;11.530;2022-12-18T13:48:29;28.40;;;16.97;;
35364;SDS011;21464;48.112;11.530;2022-12-18T13:51:09;54.03;;;30.13;;
35364;SDS011;21464;48.112;11.530;2022-12-18T13:53:38;30.27;;;18.40;;
35364;SDS011;21464;48.112;11.530;2022-12-18T13:56:08;27.87;;;16.53;;
35364;SDS011;21464;48.112;11.530;2022-12-18T13:58:34;28.83;;;17.00;;
35364;SDS011;21464;48.112;11.530;2022-12-18T14:01:00;26.87;;;16.40;;
35364;SDS011;21464;48.112;11.530;2022-12-18T14:03:29;27.50;;;16.03;;
35364;SDS011;21464;48.112;11.530;2022-12-18T14:05:58;28.37;;;17.10;;
35364;SDS011;21464;48.112;11.530;2022-12-18T14:08:30;26.80;;;17.13;;
35364;SDS011;21464;48.112;11.530;2022-12-18T14:10:59;27.90;;;17.23;;
35364;SDS011;21464;48.112;11.530;2022-12-18T14:13:30;27.30;;;16.93;;
35364;SDS011;21464;48.112;11.530;2022-12-18T14:16:00;28.77;;;17.47;;
35364;SDS011;21464;48.112;11.530;2022-12-18T14:21:15;27.83;;;17.90;;
35364;SDS011;21464;48.112;11.530;2022-12-18T14:23:44;30.73;;;17.33;;
35364;SDS011;21464;48.112;11.530;2022-12-18T14:26:22;27.80;;;16.77;;
35364;SDS011;21464;48.112;11.530;2022-12-18T14:28:54;39.93;;;23.13;;
35364;SDS011;21464;48.112;11.530;2022-12-18T14:31:23;34.00;;;19.83;;
35364;SDS011;21464;48.112;11.530;2022-12-18T14:33:51;33.67;;;20.43;;
35364;SDS011;21464;48.112;11.530;2022-12-18T14:36:20;34.03;;;20.03;;
35364;SDS011;21464;48.112;11.530;2022-12-18T14:38:52;34.87;;;18.80;;
35364;SDS011;21464;48.112;11.530;2022-12-18T14:41:20;30.87;;;19.10;;
35364;SDS011;21464;48.112;11.530;2022-12-18T14:43:48;31.63;;;18.30;;
35364;SDS011;21464;48.112;11.530;2022-12-18T14:49:14;29.53;;;17.00;;
35364;SDS011;21464;48.112;11.530;2022-12-18T14:52:16;28.87;;;17.47;;
35364;SDS011;21464;48.112;11.530;2022-12-18T14:54:48;32.40;;;17.67;;
35364;SDS011;21464;48.112;11.530;2022-12-18T14:57:22;31.03;;;18.00;;
35364;SDS011;21464;48.112;11.530;2022-12-18T14:59:50;30.83;;;18.23;;
35364;SDS011;21464;48.112;11.530;2022-12-18T15:04:42;37.53;;;18.63;;
35364;SDS011;21464;48.112;11.530;2022-12-18T15:07:17;33.80;;;19.07;;
35364;SDS011;21464;48.112;11.530;2022-12-18T15:12:34;32.90;;;18.80;;
35364;SDS011;21464;48.112;11.530;2022-12-18T15:15:04;30.77;;;19.00;;
35364;SDS011;21464;48.112;11.530;2022-12-18T15:17:31;34.67;;;19.73;;
35364;SDS011;21464;48.112;11.530;2022-12-18T15:19:58;35.27;;;19.17;;
35364;SDS011;21464;48.112;11.530;2022-12-18T15:22:27;33.37;;;18.90;;
35364;SDS011;21464;48.112;11.530;2022-12-18T15:24:55;35.30;;;19.97;;
35364;SDS011;21464;48.112;11.530;2022-12-18T15:27:23;29.93;;;19.33;;
35364;SDS011;21464;48.112;11.530;2022-12-18T15:30:15;33.73;;;19.40;;
35364;SDS011;21464;48.112;11.530;2022-12-18T15:32:44;29.47;;;18.20;;
35364;SDS011;21464;48.112;11.530;2022-12-18T15:37:40;32.97;;;18.30;;
35364;SDS011;21464;48.112;11.530;2022-12-18T15:40:07;31.60;;;17.57;;
35364;SDS011;21464;48.112;11.530;2022-12-18T15:42:37;31.13;;;17.67;;
35364;SDS011;21464;48.112;11.530;2022-12-18T15:45:22;31.50;;;18.20;;
35364;SDS011;21464;48.112;11.530;2022-12-18T15:47:48;31.70;;;18.13;;
35364;SDS011;21464;48.112;11.530;2022-12-18T15:50:14;32.43;;;18.50;;
35364;SDS011;21464;48.112;11.530;2022-12-18T15:52:41;29.47;;;18.40;;
35364;SDS011;21464;48.112;11.530;2022-12-18T15:55:10;29.67;;;17.43;;
35364;SDS011;21464;48.112;11.530;2022-12-18T15:57:56;34.03;;;18.80;;
35364;SDS011;21464;48.112;11.530;2022-12-18T16:00:23;30.10;;;18.30;;
35364;SDS011;21464;48.112;11.530;2022-12-18T16:02:49;29.50;;;17.87;;
35364;SDS011;21464;48.112;11.530;2022-12-18T16:05:16;32.77;;;19.90;;
35364;SDS011;21464;48.112;11.530;2022-12-18T16:07:44;33.13;;;18.93;;
35364;SDS011;21464;48.112;11.530;2022-12-18T16:10:11;33.13;;;19.93;;
35364;SDS011;21464;48.112;11.530;2022-12-18T16:12:37;34.20;;;20.10;;
35364;SDS011;21464;48.112;11.530;2022-12-18T16:15:04;33.23;;;19.33;;